sensor_id;sensor_type;location;lat;lon;timestamp;temperature;humidity
680;DHT22;322;48.846;9.230;2022-10-30T00:00:19;13.10;99.90
680;DHT22;322;48.846;9.230;2022-10-30T00:02:46;13.10;99.90
680;DHT22;322;48.846;9.230;2022-10-30T00:05:14;13.10;99.90
680;DHT22;322;48.846;9.230;2022-10-30T00:07:41;13.10;99.90
680;DHT22;322;48.846;9.230;2022-10-30T00:10:09;13.20;99.90
680;DHT22;322;48.846;9.230;2022-10-30T00:12:36;13.10;99.90
680;DHT22;322;48.846;9.230;2022-10-30T00:15:03;13.10;99.90
680;DHT22;322;48.846;9.230;2022-10-30T00:17:30;13.10;99.90
680;DHT22;322;48.846;9.230;2022-10-30T00:19:58;13.10;99.90
680;DHT22;322;48.846;9.230;2022-10-30T00:22:25;13.00;99.90
680;DHT22;322;48.846;9.230;2022-10-30T00:24:52;13.00;99.90
680;DHT22;322;48.846;9.230;2022-10-30T00:27:20;13.00;99.90
680;DHT22;322;48.846;9.230;2022-10-30T00:29:47;12.90;99.90
680;DHT22;322;48.846;9.230;2022-10-30T00:32:14;13.00;99.90
680;DHT22;322;48.846;9.230;2022-10-30T00:34:41;13.00;99.90
680;DHT22;322;48.846;9.230;2022-10-30T00:37:08;12.90;99.90
680;DHT22;322;48.846;9.230;2022-10-30T00:39:35;13.00;99.90
680;DHT22;322;48.846;9.230;2022-10-30T00:42:02;13.20;99.90
680;DHT22;322;48.846;9.230;2022-10-30T00:44:45;13.20;99.90
680;DHT22;322;48.846;9.230;2022-10-30T00:47:17;13.20;99.90
680;DHT22;322;48.846;9.230;2022-10-30T00:49:51;13.20;99.90
680;DHT22;322;48.846;9.230;2022-10-30T00:52:19;13.10;99.90
680;DHT22;322;48.846;9.230;2022-10-30T00:54:47;13.10;99.90
680;DHT22;322;48.846;9.230;2022-10-30T00:57:14;13.10;99.90
680;DHT22;322;48.846;9.230;2022-10-30T00:59:42;13.10;99.90
680;DHT22;322;48.846;9.230;2022-10-30T01:02:10;13.20;99.90
680;DHT22;322;48.846;9.230;2022-10-30T01:04:38;13.10;99.90
680;DHT22;322;48.846;9.230;2022-10-30T01:07:09;13.10;99.90
680;DHT22;322;48.846;9.230;2022-10-30T01:09:37;13.10;99.90
680;DHT22;322;48.846;9.230;2022-10-30T01:12:05;13.00;99.90
680;DHT22;322;48.846;9.230;2022-10-30T01:14:34;13.00;99.90
680;DHT22;322;48.846;9.230;2022-10-30T01:17:22;13.00;99.90
680;DHT22;322;48.846;9.230;2022-10-30T01:20:03;12.90;99.90
680;DHT22;322;48.846;9.230;2022-10-30T01:22:44;12.90;99.90
680;DHT22;322;48.846;9.230;2022-10-30T01:25:26;12.90;99.90
680;DHT22;322;48.846;9.230;2022-10-30T01:28:03;12.80;99.90
680;DHT22;322;48.846;9.230;2022-10-30T01:30:45;12.80;99.90
680;DHT22;322;48.846;9.230;2022-10-30T01:33:22;12.80;99.90
680;DHT22;322;48.846;9.230;2022-10-30T01:35:55;12.70;99.90
680;DHT22;322;48.846;9.230;2022-10-30T01:38:30;12.70;99.90
680;DHT22;322;48.846;9.230;2022-10-30T01:40:58;12.70;99.90
680;DHT22;322;48.846;9.230;2022-10-30T01:43:25;12.70;99.90
680;DHT22;322;48.846;9.230;2022-10-30T01:46:15;12.70;99.90
680;DHT22;322;48.846;9.230;2022-10-30T01:48:56;12.70;99.90
680;DHT22;322;48.846;9.230;2022-10-30T01:51:38;12.80;99.90
680;DHT22;322;48.846;9.230;2022-10-30T01:54:15;12.80;99.90
680;DHT22;322;48.846;9.230;2022-10-30T01:57:00;12.90;99.90
680;DHT22;322;48.846;9.230;2022-10-30T01:59:33;12.90;99.90
680;DHT22;322;48.846;9.230;2022-10-30T02:02:02;12.90;99.90
680;DHT22;322;48.846;9.230;2022-10-30T02:04:31;13.00;99.90
680;DHT22;322;48.846;9.230;2022-10-30T02:06:58;12.90;99.90
680;DHT22;322;48.846;9.230;2022-10-30T02:09:25;13.00;99.90
680;DHT22;322;48.846;9.230;2022-10-30T02:11:52;13.00;99.90
680;DHT22;322;48.846;9.230;2022-10-30T02:14:23;13.00;99.90
680;DHT22;322;48.846;9.230;2022-10-30T02:16:53;13.00;99.90
680;DHT22;322;48.846;9.230;2022-10-30T02:19:22;13.10;99.90
680;DHT22;322;48.846;9.230;2022-10-30T02:21:50;13.10;99.90
680;DHT22;322;48.846;9.230;2022-10-30T02:24:17;13.10;99.90
680;DHT22;322;48.846;9.230;2022-10-30T02:26:44;13.20;99.90
680;DHT22;322;48.846;9.230;2022-10-30T02:29:11;13.30;99.90
680;DHT22;322;48.846;9.230;2022-10-30T02:31:38;13.30;99.90
680;DHT22;322;48.846;9.230;2022-10-30T02:34:05;13.30;99.90
680;DHT22;322;48.846;9.230;2022-10-30T02:36:32;13.30;99.90
680;DHT22;322;48.846;9.230;2022-10-30T02:39:00;13.30;99.90
680;DHT22;322;48.846;9.230;2022-10-30T02:41:27;13.30;99.90
680;DHT22;322;48.846;9.230;2022-10-30T02:43:54;13.40;99.90
680;DHT22;322;48.846;9.230;2022-10-30T02:46:21;13.40;99.90
680;DHT22;322;48.846;9.230;2022-10-30T02:48:47;13.40;99.90
680;DHT22;322;48.846;9.230;2022-10-30T02:51:14;13.30;99.90
680;DHT22;322;48.846;9.230;2022-10-30T02:53:41;13.30;99.90
680;DHT22;322;48.846;9.230;2022-10-30T02:56:10;13.30;99.90
680;DHT22;322;48.846;9.230;2022-10-30T02:58:38;13.20;99.90
680;DHT22;322;48.846;9.230;2022-10-30T03:01:06;13.20;99.90
680;DHT22;322;48.846;9.230;2022-10-30T03:03:33;13.10;99.90
680;DHT22;322;48.846;9.230;2022-10-30T03:06:00;13.10;99.90
680;DHT22;322;48.846;9.230;2022-10-30T03:08:27;13.10;99.90
680;DHT22;322;48.846;9.230;2022-10-30T03:10:59;13.10;99.90
680;DHT22;322;48.846;9.230;2022-10-30T03:13:28;13.00;99.90
680;DHT22;322;48.846;9.230;2022-10-30T03:15:59;12.90;99.90
680;DHT22;322;48.846;9.230;2022-10-30T03:18:26;12.90;99.90
680;DHT22;322;48.846;9.230;2022-10-30T03:20:55;12.90;99.90
680;DHT22;322;48.846;9.230;2022-10-30T03:23:23;12.90;99.90
680;DHT22;322;48.846;9.230;2022-10-30T03:25:51;12.80;99.90
680;DHT22;322;48.846;9.230;2022-10-30T03:28:18;12.80;99.90
680;DHT22;322;48.846;9.230;2022-10-30T03:30:47;12.70;99.90
680;DHT22;322;48.846;9.230;2022-10-30T03:33:13;12.70;99.90
680;DHT22;322;48.846;9.230;2022-10-30T03:35:42;12.60;99.90
680;DHT22;322;48.846;9.230;2022-10-30T03:38:09;12.60;99.90
680;DHT22;322;48.846;9.230;2022-10-30T03:40:35;12.50;99.90
680;DHT22;322;48.846;9.230;2022-10-30T03:43:02;12.60;99.90
680;DHT22;322;48.846;9.230;2022-10-30T03:45:30;12.50;99.90
680;DHT22;322;48.846;9.230;2022-10-30T03:47:59;12.50;99.90
680;DHT22;322;48.846;9.230;2022-10-30T03:50:26;12.50;99.90
680;DHT22;322;48.846;9.230;2022-10-30T03:52:53;12.40;99.90
680;DHT22;322;48.846;9.230;2022-10-30T03:55:20;12.40;99.90
680;DHT22;322;48.846;9.230;2022-10-30T03:57:47;12.20;99.90
680;DHT22;322;48.846;9.230;2022-10-30T04:00:15;12.20;99.90
680;DHT22;322;48.846;9.230;2022-10-30T04:02:46;12.20;99.90
680;DHT22;322;48.846;9.230;2022-10-30T04:05:15;12.10;99.90
680;DHT22;322;48.846;9.230;2022-10-30T04:07:43;12.00;99.90
680;DHT22;322;48.846;9.230;2022-10-30T04:10:10;12.00;99.90
680;DHT22;322;48.846;9.230;2022-10-30T04:12:37;12.10;99.90
680;DHT22;322;48.846;9.230;2022-10-30T04:15:06;12.10;99.90
680;DHT22;322;48.846;9.230;2022-10-30T04:17:33;12.10;99.90
680;DHT22;322;48.846;9.230;2022-10-30T04:20:00;12.10;99.90
680;DHT22;322;48.846;9.230;2022-10-30T04:22:28;12.00;99.90
680;DHT22;322;48.846;9.230;2022-10-30T04:24:55;12.00;99.90
680;DHT22;322;48.846;9.230;2022-10-30T04:27:21;12.00;99.90
680;DHT22;322;48.846;9.230;2022-10-30T04:29:48;11.90;99.90
680;DHT22;322;48.846;9.230;2022-10-30T04:32:15;11.80;99.90
680;DHT22;322;48.846;9.230;2022-10-30T04:34:41;11.80;99.90
680;DHT22;322;48.846;9.230;2022-10-30T04:37:08;11.90;99.90
680;DHT22;322;48.846;9.230;2022-10-30T04:39:36;12.00;99.90
680;DHT22;322;48.846;9.230;2022-10-30T04:42:03;12.00;99.90
680;DHT22;322;48.846;9.230;2022-10-30T04:44:30;12.00;99.90
680;DHT22;322;48.846;9.230;2022-10-30T04:46:57;12.00;99.90
680;DHT22;322;48.846;9.230;2022-10-30T04:49:23;11.90;99.90
680;DHT22;322;48.846;9.230;2022-10-30T04:51:50;11.80;99.90
680;DHT22;322;48.846;9.230;2022-10-30T04:54:17;11.80;99.90
680;DHT22;322;48.846;9.230;2022-10-30T04:56:46;11.80;99.90
680;DHT22;322;48.846;9.230;2022-10-30T04:59:13;11.70;99.90
680;DHT22;322;48.846;9.230;2022-10-30T05:01:40;11.70;99.90
680;DHT22;322;48.846;9.230;2022-10-30T05:04:07;11.70;99.90
680;DHT22;322;48.846;9.230;2022-10-30T05:06:34;11.70;99.90
680;DHT22;322;48.846;9.230;2022-10-30T05:09:01;11.80;99.90
680;DHT22;322;48.846;9.230;2022-10-30T05:11:28;11.80;99.90
680;DHT22;322;48.846;9.230;2022-10-30T05:13:56;11.80;99.90
680;DHT22;322;48.846;9.230;2022-10-30T05:16:23;11.80;99.90
680;DHT22;322;48.846;9.230;2022-10-30T05:18:49;11.80;99.90
680;DHT22;322;48.846;9.230;2022-10-30T05:21:16;11.90;99.90
680;DHT22;322;48.846;9.230;2022-10-30T05:23:43;11.90;99.90
680;DHT22;322;48.846;9.230;2022-10-30T05:26:10;11.80;99.90
680;DHT22;322;48.846;9.230;2022-10-30T05:28:36;11.80;99.90
680;DHT22;322;48.846;9.230;2022-10-30T05:31:05;11.70;99.90
680;DHT22;322;48.846;9.230;2022-10-30T05:33:32;11.70;99.90
680;DHT22;322;48.846;9.230;2022-10-30T05:35:59;11.70;99.90
680;DHT22;322;48.846;9.230;2022-10-30T05:38:25;11.60;99.90
680;DHT22;322;48.846;9.230;2022-10-30T05:40:52;11.60;99.90
680;DHT22;322;48.846;9.230;2022-10-30T05:43:19;11.50;99.90
680;DHT22;322;48.846;9.230;2022-10-30T05:45:47;11.40;99.90
680;DHT22;322;48.846;9.230;2022-10-30T05:48:16;11.40;99.90
680;DHT22;322;48.846;9.230;2022-10-30T05:50:42;11.30;99.90
680;DHT22;322;48.846;9.230;2022-10-30T05:53:09;11.30;99.90
680;DHT22;322;48.846;9.230;2022-10-30T05:55:36;11.20;99.90
680;DHT22;322;48.846;9.230;2022-10-30T05:58:04;11.20;99.90
680;DHT22;322;48.846;9.230;2022-10-30T06:00:34;11.20;99.90
680;DHT22;322;48.846;9.230;2022-10-30T06:03:01;11.20;99.90
680;DHT22;322;48.846;9.230;2022-10-30T06:05:31;11.20;99.90
680;DHT22;322;48.846;9.230;2022-10-30T06:07:58;11.30;99.90
680;DHT22;322;48.846;9.230;2022-10-30T06:10:25;11.30;99.90
680;DHT22;322;48.846;9.230;2022-10-30T06:12:52;11.30;99.90
680;DHT22;322;48.846;9.230;2022-10-30T06:15:19;11.40;99.90
680;DHT22;322;48.846;9.230;2022-10-30T06:17:46;11.40;99.90
680;DHT22;322;48.846;9.230;2022-10-30T06:20:13;11.40;99.90
680;DHT22;322;48.846;9.230;2022-10-30T06:22:44;11.40;99.90
680;DHT22;322;48.846;9.230;2022-10-30T06:25:18;11.30;99.90
680;DHT22;322;48.846;9.230;2022-10-30T06:27:45;11.30;99.90
680;DHT22;322;48.846;9.230;2022-10-30T06:30:12;11.30;99.90
680;DHT22;322;48.846;9.230;2022-10-30T06:32:38;11.30;99.90
680;DHT22;322;48.846;9.230;2022-10-30T06:35:06;11.20;99.90
680;DHT22;322;48.846;9.230;2022-10-30T06:37:33;11.30;99.90
680;DHT22;322;48.846;9.230;2022-10-30T06:40:02;11.30;99.90
680;DHT22;322;48.846;9.230;2022-10-30T06:42:29;11.30;99.90
680;DHT22;322;48.846;9.230;2022-10-30T06:44:55;11.40;99.90
680;DHT22;322;48.846;9.230;2022-10-30T06:47:22;11.40;99.90
680;DHT22;322;48.846;9.230;2022-10-30T06:49:49;11.40;99.90
680;DHT22;322;48.846;9.230;2022-10-30T06:52:15;11.50;99.90
680;DHT22;322;48.846;9.230;2022-10-30T06:54:43;11.60;99.90
680;DHT22;322;48.846;9.230;2022-10-30T06:57:14;11.60;99.90
680;DHT22;322;48.846;9.230;2022-10-30T06:59:41;11.60;99.90
680;DHT22;322;48.846;9.230;2022-10-30T07:02:08;11.70;99.90
680;DHT22;322;48.846;9.230;2022-10-30T07:04:36;11.80;99.90
680;DHT22;322;48.846;9.230;2022-10-30T07:07:03;11.80;99.90
680;DHT22;322;48.846;9.230;2022-10-30T07:09:29;11.90;99.90
680;DHT22;322;48.846;9.230;2022-10-30T07:11:56;11.90;99.90
680;DHT22;322;48.846;9.230;2022-10-30T07:14:24;12.00;99.90
680;DHT22;322;48.846;9.230;2022-10-30T07:16:53;12.10;99.90
680;DHT22;322;48.846;9.230;2022-10-30T07:19:20;12.20;99.90
680;DHT22;322;48.846;9.230;2022-10-30T07:21:47;12.30;99.90
680;DHT22;322;48.846;9.230;2022-10-30T07:24:14;12.40;99.90
680;DHT22;322;48.846;9.230;2022-10-30T07:26:41;12.50;99.90
680;DHT22;322;48.846;9.230;2022-10-30T07:29:08;12.60;99.90
680;DHT22;322;48.846;9.230;2022-10-30T07:31:36;12.60;99.90
680;DHT22;322;48.846;9.230;2022-10-30T07:34:03;12.70;99.90
680;DHT22;322;48.846;9.230;2022-10-30T07:36:30;12.80;99.90
680;DHT22;322;48.846;9.230;2022-10-30T07:38:56;12.90;99.90
680;DHT22;322;48.846;9.230;2022-10-30T07:41:23;13.00;99.90
680;DHT22;322;48.846;9.230;2022-10-30T07:43:50;13.10;99.90
680;DHT22;322;48.846;9.230;2022-10-30T07:46:17;13.20;99.90
680;DHT22;322;48.846;9.230;2022-10-30T07:48:45;13.20;99.90
680;DHT22;322;48.846;9.230;2022-10-30T07:51:12;13.40;99.90
680;DHT22;322;48.846;9.230;2022-10-30T07:53:39;13.50;99.90
680;DHT22;322;48.846;9.230;2022-10-30T07:56:06;13.60;99.90
680;DHT22;322;48.846;9.230;2022-10-30T07:58:33;13.80;99.90
680;DHT22;322;48.846;9.230;2022-10-30T08:01:02;13.90;99.90
680;DHT22;322;48.846;9.230;2022-10-30T08:03:28;14.10;99.90
680;DHT22;322;48.846;9.230;2022-10-30T08:05:57;14.20;99.90
680;DHT22;322;48.846;9.230;2022-10-30T08:08:23;14.40;99.90
680;DHT22;322;48.846;9.230;2022-10-30T08:10:50;14.50;99.90
680;DHT22;322;48.846;9.230;2022-10-30T08:13:17;14.60;99.90
680;DHT22;322;48.846;9.230;2022-10-30T08:15:44;14.70;99.90
680;DHT22;322;48.846;9.230;2022-10-30T08:18:10;14.80;99.90
680;DHT22;322;48.846;9.230;2022-10-30T08:20:37;14.90;99.90
680;DHT22;322;48.846;9.230;2022-10-30T08:23:05;15.00;99.90
680;DHT22;322;48.846;9.230;2022-10-30T08:25:32;15.10;99.90
680;DHT22;322;48.846;9.230;2022-10-30T08:28:00;15.10;99.90
680;DHT22;322;48.846;9.230;2022-10-30T08:30:29;15.20;99.90
680;DHT22;322;48.846;9.230;2022-10-30T08:32:59;15.30;99.90
680;DHT22;322;48.846;9.230;2022-10-30T08:35:27;15.40;99.90
680;DHT22;322;48.846;9.230;2022-10-30T08:37:54;15.50;99.90
680;DHT22;322;48.846;9.230;2022-10-30T08:40:22;15.60;99.90
680;DHT22;322;48.846;9.230;2022-10-30T08:42:50;15.70;99.90
680;DHT22;322;48.846;9.230;2022-10-30T08:45:17;15.80;99.90
680;DHT22;322;48.846;9.230;2022-10-30T08:47:44;15.90;99.90
680;DHT22;322;48.846;9.230;2022-10-30T08:50:10;16.00;99.90
680;DHT22;322;48.846;9.230;2022-10-30T08:52:37;16.10;99.90
680;DHT22;322;48.846;9.230;2022-10-30T08:55:05;16.20;99.90
680;DHT22;322;48.846;9.230;2022-10-30T08:57:35;16.20;99.90
680;DHT22;322;48.846;9.230;2022-10-30T09:00:03;16.40;99.90
680;DHT22;322;48.846;9.230;2022-10-30T09:02:30;16.50;99.90
680;DHT22;322;48.846;9.230;2022-10-30T09:04:56;16.60;99.90
680;DHT22;322;48.846;9.230;2022-10-30T09:07:23;16.80;99.90
680;DHT22;322;48.846;9.230;2022-10-30T09:09:50;17.00;99.90
680;DHT22;322;48.846;9.230;2022-10-30T09:12:17;17.20;99.90
680;DHT22;322;48.846;9.230;2022-10-30T09:14:45;17.30;99.90
680;DHT22;322;48.846;9.230;2022-10-30T09:17:12;17.40;99.90
680;DHT22;322;48.846;9.230;2022-10-30T09:19:39;17.60;99.90
680;DHT22;322;48.846;9.230;2022-10-30T09:22:06;17.70;99.90
680;DHT22;322;48.846;9.230;2022-10-30T09:24:33;18.00;99.90
680;DHT22;322;48.846;9.230;2022-10-30T09:26:59;18.30;99.90
680;DHT22;322;48.846;9.230;2022-10-30T09:29:26;18.60;99.90
680;DHT22;322;48.846;9.230;2022-10-30T09:31:55;18.90;99.90
680;DHT22;322;48.846;9.230;2022-10-30T09:34:22;19.40;99.90
680;DHT22;322;48.846;9.230;2022-10-30T09:36:49;19.80;99.90
680;DHT22;322;48.846;9.230;2022-10-30T09:39:15;20.20;99.90
680;DHT22;322;48.846;9.230;2022-10-30T09:42:10;20.50;99.90
680;DHT22;322;48.846;9.230;2022-10-30T09:44:49;21.00;99.90
680;DHT22;322;48.846;9.230;2022-10-30T09:47:24;21.60;99.90
680;DHT22;322;48.846;9.230;2022-10-30T09:50:05;22.20;99.90
680;DHT22;322;48.846;9.230;2022-10-30T09:52:44;22.70;99.90
680;DHT22;322;48.846;9.230;2022-10-30T09:55:22;23.10;99.90
680;DHT22;322;48.846;9.230;2022-10-30T09:58:00;23.50;99.90
680;DHT22;322;48.846;9.230;2022-10-30T10:00:34;23.90;99.90
680;DHT22;322;48.846;9.230;2022-10-30T10:03:18;24.20;99.90
680;DHT22;322;48.846;9.230;2022-10-30T10:05:51;24.80;99.90
680;DHT22;322;48.846;9.230;2022-10-30T10:08:22;25.20;99.90
680;DHT22;322;48.846;9.230;2022-10-30T10:10:52;25.60;99.90
680;DHT22;322;48.846;9.230;2022-10-30T10:13:28;25.60;99.90
680;DHT22;322;48.846;9.230;2022-10-30T10:16:01;25.60;99.90
680;DHT22;322;48.846;9.230;2022-10-30T10:18:36;25.90;99.90
680;DHT22;322;48.846;9.230;2022-10-30T10:21:11;26.10;98.90
680;DHT22;322;48.846;9.230;2022-10-30T10:23:46;26.20;98.80
680;DHT22;322;48.846;9.230;2022-10-30T10:26:22;26.80;98.20
680;DHT22;322;48.846;9.230;2022-10-30T10:29:09;27.20;97.50
680;DHT22;322;48.846;9.230;2022-10-30T10:31:44;27.50;96.80
680;DHT22;322;48.846;9.230;2022-10-30T10:34:28;27.80;96.20
680;DHT22;322;48.846;9.230;2022-10-30T10:37:03;28.10;94.70
680;DHT22;322;48.846;9.230;2022-10-30T10:39:45;27.90;95.90
680;DHT22;322;48.846;9.230;2022-10-30T10:42:22;28.00;95.10
680;DHT22;322;48.846;9.230;2022-10-30T10:45:06;28.30;93.80
680;DHT22;322;48.846;9.230;2022-10-30T10:47:59;28.00;95.70
680;DHT22;322;48.846;9.230;2022-10-30T10:50:32;28.10;95.10
680;DHT22;322;48.846;9.230;2022-10-30T10:53:01;28.20;94.90
680;DHT22;322;48.846;9.230;2022-10-30T10:55:32;28.40;93.60
680;DHT22;322;48.846;9.230;2022-10-30T10:58:06;28.60;93.10
680;DHT22;322;48.846;9.230;2022-10-30T11:00:33;28.70;93.00
680;DHT22;322;48.846;9.230;2022-10-30T11:03:06;29.00;93.10
680;DHT22;322;48.846;9.230;2022-10-30T11:05:40;29.10;92.70
680;DHT22;322;48.846;9.230;2022-10-30T11:08:12;29.20;92.40
680;DHT22;322;48.846;9.230;2022-10-30T11:10:40;29.20;92.80
680;DHT22;322;48.846;9.230;2022-10-30T11:13:11;28.80;92.10
680;DHT22;322;48.846;9.230;2022-10-30T11:15:53;28.20;93.60
680;DHT22;322;48.846;9.230;2022-10-30T11:18:22;28.00;93.90
680;DHT22;322;48.846;9.230;2022-10-30T11:20:56;28.40;94.60
680;DHT22;322;48.846;9.230;2022-10-30T11:23:37;29.00;93.80
680;DHT22;322;48.846;9.230;2022-10-30T11:26:25;29.40;91.40
680;DHT22;322;48.846;9.230;2022-10-30T11:28:55;29.10;91.60
680;DHT22;322;48.846;9.230;2022-10-30T11:31:24;28.40;92.40
680;DHT22;322;48.846;9.230;2022-10-30T11:33:52;27.20;94.20
680;DHT22;322;48.846;9.230;2022-10-30T11:36:23;26.50;95.10
680;DHT22;322;48.846;9.230;2022-10-30T11:38:50;26.10;96.30
680;DHT22;322;48.846;9.230;2022-10-30T11:41:18;25.70;98.10
680;DHT22;322;48.846;9.230;2022-10-30T11:43:46;25.10;97.00
680;DHT22;322;48.846;9.230;2022-10-30T11:46:19;24.90;98.10
680;DHT22;322;48.846;9.230;2022-10-30T11:48:47;24.70;98.70
680;DHT22;322;48.846;9.230;2022-10-30T11:51:30;24.60;99.20
680;DHT22;322;48.846;9.230;2022-10-30T11:53:58;24.50;99.30
680;DHT22;322;48.846;9.230;2022-10-30T11:56:27;24.50;99.00
680;DHT22;322;48.846;9.230;2022-10-30T11:58:56;24.40;99.60
680;DHT22;322;48.846;9.230;2022-10-30T12:01:25;24.40;99.90
680;DHT22;322;48.846;9.230;2022-10-30T12:03:53;24.40;99.80
680;DHT22;322;48.846;9.230;2022-10-30T12:06:26;24.30;99.90
680;DHT22;322;48.846;9.230;2022-10-30T12:09:02;24.20;99.90
680;DHT22;322;48.846;9.230;2022-10-30T12:11:31;24.20;99.90
680;DHT22;322;48.846;9.230;2022-10-30T12:13:58;24.20;99.90
680;DHT22;322;48.846;9.230;2022-10-30T12:16:26;24.20;99.90
680;DHT22;322;48.846;9.230;2022-10-30T12:18:57;24.20;99.90
680;DHT22;322;48.846;9.230;2022-10-30T12:21:26;24.20;99.90
680;DHT22;322;48.846;9.230;2022-10-30T12:23:56;24.10;99.90
680;DHT22;322;48.846;9.230;2022-10-30T12:26:27;24.20;99.90
680;DHT22;322;48.846;9.230;2022-10-30T12:28:58;24.20;99.90
680;DHT22;322;48.846;9.230;2022-10-30T12:31:32;24.20;99.40
680;DHT22;322;48.846;9.230;2022-10-30T12:34:09;24.30;99.60
680;DHT22;322;48.846;9.230;2022-10-30T12:36:44;24.30;99.90
680;DHT22;322;48.846;9.230;2022-10-30T12:39:17;24.40;99.90
680;DHT22;322;48.846;9.230;2022-10-30T12:41:57;24.30;98.50
680;DHT22;322;48.846;9.230;2022-10-30T12:44:28;24.30;99.20
680;DHT22;322;48.846;9.230;2022-10-30T12:47:00;24.40;99.90
680;DHT22;322;48.846;9.230;2022-10-30T12:49:36;24.50;99.90
680;DHT22;322;48.846;9.230;2022-10-30T12:52:08;24.60;99.90
680;DHT22;322;48.846;9.230;2022-10-30T12:54:42;24.60;99.90
680;DHT22;322;48.846;9.230;2022-10-30T12:57:17;24.60;99.90
680;DHT22;322;48.846;9.230;2022-10-30T12:59:50;24.60;99.90
680;DHT22;322;48.846;9.230;2022-10-30T13:02:30;24.50;99.90
680;DHT22;322;48.846;9.230;2022-10-30T13:05:00;24.40;99.90
680;DHT22;322;48.846;9.230;2022-10-30T13:07:34;24.50;99.90
680;DHT22;322;48.846;9.230;2022-10-30T13:10:18;24.40;99.90
680;DHT22;322;48.846;9.230;2022-10-30T13:12:50;24.40;99.90
680;DHT22;322;48.846;9.230;2022-10-30T13:15:22;24.40;99.90
680;DHT22;322;48.846;9.230;2022-10-30T13:17:50;24.20;99.90
680;DHT22;322;48.846;9.230;2022-10-30T13:20:17;24.20;99.90
680;DHT22;322;48.846;9.230;2022-10-30T13:22:48;24.10;99.90
680;DHT22;322;48.846;9.230;2022-10-30T13:25:19;24.00;99.90
680;DHT22;322;48.846;9.230;2022-10-30T13:27:53;23.90;99.90
680;DHT22;322;48.846;9.230;2022-10-30T13:30:22;23.80;99.90
680;DHT22;322;48.846;9.230;2022-10-30T13:33:02;23.70;99.90
680;DHT22;322;48.846;9.230;2022-10-30T13:35:34;23.70;99.90
680;DHT22;322;48.846;9.230;2022-10-30T13:38:14;23.60;99.90
680;DHT22;322;48.846;9.230;2022-10-30T13:40:45;23.50;99.90
680;DHT22;322;48.846;9.230;2022-10-30T13:43:22;23.50;99.90
680;DHT22;322;48.846;9.230;2022-10-30T13:46:00;23.40;99.90
680;DHT22;322;48.846;9.230;2022-10-30T13:48:42;23.40;99.90
680;DHT22;322;48.846;9.230;2022-10-30T13:51:36;23.30;99.90
680;DHT22;322;48.846;9.230;2022-10-30T13:54:11;23.30;99.90
680;DHT22;322;48.846;9.230;2022-10-30T13:56:40;23.30;99.90
680;DHT22;322;48.846;9.230;2022-10-30T13:59:23;23.40;99.90
680;DHT22;322;48.846;9.230;2022-10-30T14:01:57;23.30;99.90
680;DHT22;322;48.846;9.230;2022-10-30T14:04:31;23.40;99.90
680;DHT22;322;48.846;9.230;2022-10-30T14:07:18;23.50;99.90
680;DHT22;322;48.846;9.230;2022-10-30T14:09:53;23.40;99.90
680;DHT22;322;48.846;9.230;2022-10-30T14:12:44;23.40;99.90
680;DHT22;322;48.846;9.230;2022-10-30T14:15:24;23.30;99.90
680;DHT22;322;48.846;9.230;2022-10-30T14:18:24;23.30;99.90
680;DHT22;322;48.846;9.230;2022-10-30T14:20:52;23.10;99.90
680;DHT22;322;48.846;9.230;2022-10-30T14:23:20;23.00;99.90
680;DHT22;322;48.846;9.230;2022-10-30T14:26:11;22.90;99.90
680;DHT22;322;48.846;9.230;2022-10-30T14:28:39;22.80;99.90
680;DHT22;322;48.846;9.230;2022-10-30T14:31:09;22.70;99.90
680;DHT22;322;48.846;9.230;2022-10-30T14:33:43;22.70;99.90
680;DHT22;322;48.846;9.230;2022-10-30T14:39:27;22.40;99.90
680;DHT22;322;48.846;9.230;2022-10-30T14:42:01;22.30;99.90
680;DHT22;322;48.846;9.230;2022-10-30T14:45:01;22.10;99.90
680;DHT22;322;48.846;9.230;2022-10-30T14:47:53;22.00;99.90
680;DHT22;322;48.846;9.230;2022-10-30T14:50:51;21.80;99.90
680;DHT22;322;48.846;9.230;2022-10-30T14:53:33;21.70;99.90
680;DHT22;322;48.846;9.230;2022-10-30T14:56:07;21.60;99.90
680;DHT22;322;48.846;9.230;2022-10-30T14:58:37;21.40;99.90
680;DHT22;322;48.846;9.230;2022-10-30T15:01:29;21.30;99.90
680;DHT22;322;48.846;9.230;2022-10-30T15:04:06;21.20;99.90
680;DHT22;322;48.846;9.230;2022-10-30T15:06:41;21.10;99.90
680;DHT22;322;48.846;9.230;2022-10-30T15:09:18;21.00;99.90
680;DHT22;322;48.846;9.230;2022-10-30T15:12:08;20.90;99.90
680;DHT22;322;48.846;9.230;2022-10-30T15:14:41;20.80;99.90
680;DHT22;322;48.846;9.230;2022-10-30T15:17:20;20.70;99.90
680;DHT22;322;48.846;9.230;2022-10-30T15:19:49;20.60;99.90
680;DHT22;322;48.846;9.230;2022-10-30T15:22:19;20.60;99.90
680;DHT22;322;48.846;9.230;2022-10-30T15:24:48;20.50;99.90
680;DHT22;322;48.846;9.230;2022-10-30T15:27:17;20.50;99.90
680;DHT22;322;48.846;9.230;2022-10-30T15:29:48;20.30;99.90
680;DHT22;322;48.846;9.230;2022-10-30T15:32:17;20.20;99.90
680;DHT22;322;48.846;9.230;2022-10-30T15:34:56;20.10;99.90
680;DHT22;322;48.846;9.230;2022-10-30T15:37:24;20.00;99.90
680;DHT22;322;48.846;9.230;2022-10-30T15:40:10;19.80;99.90
680;DHT22;322;48.846;9.230;2022-10-30T15:42:37;19.60;99.90
680;DHT22;322;48.846;9.230;2022-10-30T15:45:05;19.50;99.90
680;DHT22;322;48.846;9.230;2022-10-30T15:47:44;19.30;99.90
680;DHT22;322;48.846;9.230;2022-10-30T15:50:14;19.20;99.90
680;DHT22;322;48.846;9.230;2022-10-30T15:52:42;19.00;99.90
680;DHT22;322;48.846;9.230;2022-10-30T15:55:13;18.90;99.90
680;DHT22;322;48.846;9.230;2022-10-30T15:57:43;18.80;99.90
680;DHT22;322;48.846;9.230;2022-10-30T16:00:19;18.60;99.90
680;DHT22;322;48.846;9.230;2022-10-30T16:02:46;18.40;99.90
680;DHT22;322;48.846;9.230;2022-10-30T16:05:21;18.30;99.90
680;DHT22;322;48.846;9.230;2022-10-30T16:07:48;18.20;99.90
680;DHT22;322;48.846;9.230;2022-10-30T16:10:16;18.10;99.90
680;DHT22;322;48.846;9.230;2022-10-30T16:12:43;18.00;99.90
680;DHT22;322;48.846;9.230;2022-10-30T16:15:24;17.90;99.90
680;DHT22;322;48.846;9.230;2022-10-30T16:18:01;17.70;99.90
680;DHT22;322;48.846;9.230;2022-10-30T16:20:31;17.80;99.90
680;DHT22;322;48.846;9.230;2022-10-30T16:22:59;17.80;99.90
680;DHT22;322;48.846;9.230;2022-10-30T16:25:26;17.80;99.90
680;DHT22;322;48.846;9.230;2022-10-30T16:27:53;17.80;99.90
680;DHT22;322;48.846;9.230;2022-10-30T16:30:20;17.70;99.90
680;DHT22;322;48.846;9.230;2022-10-30T16:32:50;17.60;99.90
680;DHT22;322;48.846;9.230;2022-10-30T16:35:20;17.40;99.90
680;DHT22;322;48.846;9.230;2022-10-30T16:37:50;17.30;99.90
680;DHT22;322;48.846;9.230;2022-10-30T16:40:20;17.20;99.90
680;DHT22;322;48.846;9.230;2022-10-30T16:42:51;17.00;99.90
680;DHT22;322;48.846;9.230;2022-10-30T16:45:45;16.90;99.90
680;DHT22;322;48.846;9.230;2022-10-30T16:48:17;16.70;99.90
680;DHT22;322;48.846;9.230;2022-10-30T16:50:44;16.60;99.90
680;DHT22;322;48.846;9.230;2022-10-30T16:53:18;16.40;99.90
680;DHT22;322;48.846;9.230;2022-10-30T16:55:45;16.30;99.90
680;DHT22;322;48.846;9.230;2022-10-30T16:58:13;16.20;99.90
680;DHT22;322;48.846;9.230;2022-10-30T17:00:47;16.30;99.90